Tiempo atmosférico en la estación meteorológica de Teruel, Santa Eulalia del Campo, Teruel (1000 m.)



Fecha
DESCASC
Temp. máxima en grados centígrados (hora)
DESCASC
Temp. mínima en grados centígrados (hora)
DESCASC
Temp. media en grados centígrados
DESCASC
Racha de viento máxima en m/sg (hora)
DESCASC
Velocidad máxima media en intervalos de 10 minutos(hora)
DESCASC
Precipitaciones diarias en mm
DESCASC
Precipitaciones de 00:00 a 06:00 en mm
DESCASC
Precipitaciones de 06:00 a 12:00 en mm
DESCASC
Precipitaciones de 12:00 a 18:00 en mm
DESCASC
Precipitaciones de 18:00 a 24:00 en mm
DESCASC

Gráficas

Temp. máximas Temp. mínimas Temp. medias Precipitaciones Rachas de viento máximas Velocidades máximas media en intervalos de 10 minutos

Datos horarios

Fecha y hora oficial Temperatura (ºC) Velocidad del viento (km/h) Dirección del viento Racha (km/h) Dirección de racha Precipitación (mm) Presión (hPa) Tendencia (hPa) Humedad (%)
2020-01-27 23:00:00 6.2 12 Oeste 25 Noroeste 0 -- -- 81
2020-01-27 22:00:00 5.6 6 Noroeste 18 Noroeste 0 -- -- 82
2020-01-27 21:00:00 6.2 6 Sudoeste 29 Oeste 0 -- -- 78
2020-01-27 20:00:00 5.8 2 Oeste 19 Oeste 0 -- -- 79
2020-01-27 19:00:00 6.3 8 Oeste 19 Oeste 0 -- -- 77
2020-01-27 18:00:00 7.4 3 Sudoeste 19 Sudoeste 0 -- -- 69
2020-01-27 17:00:00 7.4 8 Oeste 22 Noroeste 0 -- -- 67
2020-01-27 16:00:00 8.3 4 Norte 33 Norte 0 -- -- 64
2020-01-27 15:00:00 9.9 6 Nordeste 19 Noroeste 0 -- -- 62
2020-01-27 14:00:00 9.4 7 Norte 12 Norte 0 -- -- 62
2020-01-27 13:00:00 8.2 0 Calma 10 Sur 0 -- -- 64
2020-01-27 12:00:00 4.2 6 Sur 10 Sudoeste 0 -- -- 80
2020-01-27 11:00:00 2.8 4 Sudoeste 12 Sur 0 -- -- 84
2020-01-27 10:00:00 -0.8 6 Sur 13 Sur 0 -- -- 93
2020-01-27 09:00:00 -1.8 3 Sudoeste 9 Sudoeste 0 -- -- 97
2020-01-27 08:00:00 -3.5 0 Calma 7 Sur 0 -- -- 97
2020-01-27 07:00:00 -3.8 0 Calma -- -- 0 -- -- 97
2020-01-27 06:00:00 -2.8 0 Calma 7 Sudoeste 0 -- -- 98
2020-01-27 05:00:00 -2.7 0 Calma -- -- 0 -- -- 98
2020-01-27 04:00:00 -2.1 0 Calma -- -- 0 -- -- 97
2020-01-27 03:00:00 -1.8 0 Calma 7 Sur 0 -- -- 97
2020-01-27 02:00:00 -1.1 0 Calma 7 Sudoeste 0 -- -- 96
2020-01-27 01:00:00 -1 5 Sudoeste 8 Sur 0 -- -- 96
2020-01-27 00:00:00 -1.1 0 Calma 8 Oeste 0 -- -- 96
2020-01-26 23:00:00 -0.6 0 Calma -- -- 0 -- -- 95
2020-01-26 22:00:00 0.2 0 Calma 8 Noroeste 0 -- -- 92
2020-01-26 21:00:00 1.1 3 Oeste 11 Noroeste 0 -- -- 90
2020-01-26 20:00:00 1.7 6 Noroeste 15 Noroeste 0 -- -- 89
2020-01-26 19:00:00 2 0 Calma 9 Norte 0 -- -- 89
2020-01-26 18:00:00 4.8 9 Nordeste 20 Nordeste 0 -- -- 79
2020-01-26 17:00:00 5.9 13 Nordeste 28 Nordeste 0 -- -- 71
2020-01-26 16:00:00 7.7 18 Nordeste 26 Nordeste 0 -- -- 68
2020-01-26 15:00:00 6.5 15 Nordeste 27 Nordeste 0 -- -- 77
2020-01-26 14:00:00 7.2 19 Norte 30 Nordeste 0 -- -- 70
2020-01-26 13:00:00 8.1 12 Norte 24 Norte 0 -- -- 75
2020-01-26 12:00:00 6 15 Norte 26 Norte 0 -- -- 77
2020-01-26 11:00:00 6.6 6 Norte 14 Norte 0 -- -- 86
2020-01-26 10:00:00 3.9 4 Norte 6 Norte 0 -- -- 98
2020-01-26 09:00:00 3.2 0 Calma 5 Nordeste 0 -- -- 100
2020-01-26 08:00:00 3 4 Nordeste 8 Nordeste 0 -- -- 100
2020-01-26 07:00:00 2.8 0 Calma -- -- 0 -- -- 100
2020-01-26 06:00:00 2.9 0 Calma -- -- 0 -- -- 100
2020-01-26 05:00:00 2.8 0 Calma -- -- 0 -- -- 99
2020-01-26 04:00:00 3.2 0 Calma 7 Sudoeste 0 -- -- 99
2020-01-26 03:00:00 3.3 4 Sudoeste 6 Sur 0.2 -- -- 98
2020-01-26 02:00:00 3.4 3 Sur 6 Sur 0.2 -- -- 97
2020-01-26 01:00:00 3.6 5 Sudoeste 9 Sudoeste 0 -- -- 96
2020-01-26 00:00:00 3.7 7 Sudoeste 13 Sur 0 -- -- 96
2020-01-25 23:00:00 4 8 Sur 13 Sur 0 -- -- 96
2020-01-25 22:00:00 4.4 9 Sur 18 Sudoeste 0 -- -- 95
2020-01-25 21:00:00 4.9 10 Sur 18 Sudoeste 0 -- -- 95
2020-01-25 20:00:00 5.1 10 Sudoeste 21 Sur 0 -- -- 95
2020-01-25 19:00:00 5.6 14 Sur 22 Sur 0 -- -- 93
2020-01-25 18:00:00 6.3 12 Sur 18 Sur 0 -- -- 90
2020-01-25 17:00:00 6.9 9 Sur 17 Sur 0.2 -- -- 87
2020-01-25 16:00:00 6.7 11 Sur 22 Sur 0 -- -- 87
2020-01-25 15:00:00 7.2 13 Sur 23 Sur 0 -- -- 87
2020-01-25 14:00:00 7.1 14 Sur 25 Sur 0 -- -- 84
2020-01-25 13:00:00 6.8 14 Sur 23 Sur 0 -- -- 89
2020-01-25 12:00:00 6.2 14 Sur 21 Sur 0 -- -- 91
2020-01-25 11:00:00 5.3 10 Sur 18 Sur 0 -- -- 94
2020-01-25 10:00:00 4.1 11 Sudoeste 18 Sur 0 -- -- 96
2020-01-25 09:00:00 3.2 5 Sudoeste 10 Sudoeste 0 -- -- 99
2020-01-25 08:00:00 2.9 5 Sudoeste 12 Sudoeste 0.2 -- -- 99
2020-01-25 07:00:00 2.8 4 Sur 13 Sudoeste 0 -- -- 99
2020-01-25 06:00:00 3.2 6 Sudoeste 11 Sudoeste 0 -- -- 100
2020-01-25 05:00:00 2.4 5 Sudoeste 8 Sudoeste 0 -- -- 100
2020-01-25 04:00:00 3 0 Calma -- -- 0 -- -- 99
2020-01-25 03:00:00 2.9 0 Calma -- -- 0 -- -- 99
2020-01-25 02:00:00 3.5 0 Calma -- -- 0 -- -- 98
2020-01-25 01:00:00 3.6 0 Calma -- -- 0.2 -- -- 98
2020-01-25 00:00:00 3.6 0 Calma -- -- 0.2 -- -- 97
2020-01-24 23:00:00 3.5 0 Calma -- -- 0 -- -- 98
2020-01-24 22:00:00 3.6 0 Calma -- -- 0.4 -- -- 97
2020-01-24 21:00:00 4.4 0 Calma -- -- 0 -- -- 91
2020-01-24 20:00:00 4.5 0 Calma 9 Sudoeste 0 -- -- 90
2020-01-24 19:00:00 4.8 4 Sudoeste 16 Sur 0 -- -- 89
2020-01-24 18:00:00 5.7 8 Sur 15 Sur 0 -- -- 85
2020-01-24 17:00:00 7 9 Sur 18 Sur 0 -- -- 78
2020-01-24 16:00:00 6.6 7 Sudoeste 22 Sudoeste 0 -- -- 79
2020-01-24 15:00:00 6.9 14 Sudoeste 22 Sur 0 -- -- 76
2020-01-24 14:00:00 6.9 10 Sudoeste 22 Sur 0 -- -- 76
2020-01-24 13:00:00 6.6 13 Sur 21 Sudoeste 0 -- -- 81
2020-01-24 12:00:00 5.1 14 Sur 22 Sur 0 -- -- 88
2020-01-24 11:00:00 3.3 9 Sur 16 Sur 0 -- -- 100
2020-01-24 10:00:00 2.1 11 Sur 17 Sur 0 -- -- 100
2020-01-24 09:00:00 1.6 8 Sudoeste 15 Sur 0 -- -- 100
2020-01-24 08:00:00 1.1 8 Sur 15 Sur 0 -- -- 100
2020-01-24 07:00:00 1 6 Sudoeste 19 Sudoeste 0 -- -- 100
2020-01-24 06:00:00 0.6 0 Calma 12 Sur 0 -- -- 100
2020-01-24 05:00:00 0.7 9 Sur 15 Sur 0 -- -- 100
2020-01-24 04:00:00 0.6 0 Calma 13 Sudoeste 0 -- -- 100
2020-01-24 03:00:00 0.7 7 Sudoeste 12 Sudoeste 0 -- -- 99
2020-01-24 02:00:00 1.7 6 Sudoeste 13 Sudoeste 0 -- -- 98
2020-01-24 01:00:00 2.6 6 Sudoeste 11 Sudoeste 0 -- -- 97
2020-01-24 00:00:00 2.8 5 Sudoeste 10 Sudoeste 0 -- -- 96
2020-01-23 23:00:00 2.9 0 Calma -- -- 0 -- -- 95
2020-01-23 22:00:00 2.5 0 Calma 10 Sudoeste 0 -- -- 96
2020-01-23 21:00:00 3 0 Calma -- -- 0 -- -- 94
2020-01-23 20:00:00 2.9 0 Calma 9 Sudoeste 0 -- -- 95
2020-01-23 19:00:00 3.2 6 Sudoeste 11 Sur 0 -- -- 94
2020-01-23 18:00:00 3.3 8 Sudoeste 10 Sudoeste 0 -- -- 94
2020-01-23 17:00:00 4.1 4 Sudoeste 21 Sur 0 -- -- 92
2020-01-23 16:00:00 4.9 14 Sur 23 Sudoeste 0 -- -- 87
2020-01-23 15:00:00 4.4 12 Sudoeste 19 Sudoeste 0 -- -- 91
2020-01-23 14:00:00 2.4 12 Sudoeste 20 Sur 0 -- -- 97
2020-01-23 13:00:00 1.2 12 Sur 18 Sur 0 -- -- 100
2020-01-23 12:00:00 1 9 Sur 17 Sur 0 -- -- 99
2020-01-23 11:00:00 0.8 11 Sur 19 Sudoeste 0 -- -- 99
2020-01-23 10:00:00 1 10 Sur 15 Sur 0 -- -- 100
2020-01-23 09:00:00 0.8 7 Sur 12 Sur 0 -- -- 100
2020-01-23 08:00:00 0.6 0 Calma 10 Sur 0 -- -- 100
2020-01-23 07:00:00 0.7 5 Sudoeste 9 Sudoeste 0 -- -- 100
2020-01-23 06:00:00 0.7 0 Calma -- -- 0 -- -- 100
2020-01-23 05:00:00 0.6 0 Calma -- -- 0 -- -- 100
2020-01-23 04:00:00 0.5 0 Calma -- -- 0 -- -- 100
2020-01-23 03:00:00 0.7 0 Calma -- -- -- -- -- 100
2020-01-23 02:00:00 0.7 0 Calma 6 Norte 0 -- -- 100
2020-01-23 01:00:00 0.7 5 Norte 10 Norte 0 -- -- 100
2020-01-23 00:00:00 0.8 6 Norte 12 Norte 0 -- -- 100
2020-01-22 23:00:00 0.8 6 Norte 10 Norte 0 -- -- 100
2020-01-22 22:00:00 0.9 4 Nordeste 17 Norte 0 -- -- 100
2020-01-22 21:00:00 0.8 10 Norte 18 Norte 0 -- -- 100
2020-01-22 20:00:00 0.8 10 Norte 19 Norte 0 -- -- 100
2020-01-22 19:00:00 0.7 12 Norte 20 Norte 0 -- -- 98
2020-01-22 18:00:00 1.7 14 Norte 22 Norte 0 -- -- 95
2020-01-22 17:00:00 1.7 11 Norte 20 Norte 0 -- -- 94
2020-01-22 16:00:00 2.9 14 Norte 21 Norte 0 -- -- 91
2020-01-22 15:00:00 3.4 12 Norte 17 Norte 0 -- -- 88
2020-01-22 14:00:00 4.3 5 Norte 18 Noroeste -- -- -- 83
2020-01-22 13:00:00 2.9 13 Noroeste 19 Noroeste -- -- -- 87
2020-01-22 12:00:00 2.9 10 Norte 16 Noroeste -- -- -- 87
2020-01-22 11:00:00 2.8 9 Noroeste 17 Noroeste -- -- -- 87
2020-01-22 10:00:00 2.1 9 Norte 15 Nordeste -- -- -- 89
2020-01-22 09:00:00 2.6 10 Nordeste 21 Norte 0 -- -- 88
2020-01-22 08:00:00 2.1 9 Nordeste 15 Nordeste 0 -- -- 90
2020-01-22 07:00:00 1.9 7 Norte 17 Nordeste 0 -- -- 90
2020-01-22 06:00:00 1.8 8 Norte 21 Nordeste -- -- -- 90
2020-01-22 05:00:00 1.6 11 Norte 19 Norte -- -- -- 91
2020-01-22 04:00:00 1.2 12 Noroeste 16 Noroeste -- -- -- 92
2020-01-22 03:00:00 1.1 14 Noroeste 19 Noroeste -- -- -- 93
2020-01-22 02:00:00 0.6 15 Norte 21 Norte -- -- -- 96
2020-01-22 01:00:00 0.3 18 Norte 29 Norte -- -- -- 98
2020-01-22 00:00:00 0.4 14 Norte 27 Norte -- -- -- 97
2020-01-21 23:00:00 0.8 18 Norte 28 Norte -- -- -- 96
2020-01-21 22:00:00 1.3 18 Norte 32 Norte -- -- -- 93
2020-01-21 21:00:00 2.9 13 Norte 27 Nordeste -- -- -- 86
2020-01-21 20:00:00 0.6 14 Norte 22 Nordeste -- -- -- 98
2020-01-21 19:00:00 1.3 9 Norte 20 Nordeste -- -- -- 98
2020-01-21 18:00:00 1.4 5 Norte 18 Norte -- -- -- 97
2020-01-21 17:00:00 0.5 11 Norte 40 Norte -- -- -- 99
2020-01-21 16:00:00 0.3 22 Norte 45 Norte -- -- -- 97
2020-01-21 15:00:00 -0.8 32 Norte 43 Norte -- -- -- 99
2020-01-21 14:00:00 -0.6 31 Norte 42 Norte -- -- -- 98
2020-01-21 13:00:00 -0.9 23 Norte 37 Norte -- -- -- 97
2020-01-21 12:00:00 -1.2 24 Norte 37 Norte -- -- -- 98
2020-01-21 11:00:00 -1.6 26 Norte 38 Norte -- -- -- 98
2020-01-21 10:00:00 -1.9 28 Norte 42 Norte 0 -- -- 97
2020-01-21 09:00:00 -1.9 30 Norte 42 Norte 0 -- -- 97
2020-01-21 08:00:00 -1.8 24 Norte 41 Nordeste 0 -- -- 97
2020-01-21 07:00:00 -1.9 28 Norte 41 Norte 0 -- -- 98
2020-01-21 06:00:00 -1.4 24 Norte 42 Este 0 -- -- 94
2020-01-21 05:00:00 -1.6 19 Norte 40 Norte 0 -- -- 95
2020-01-21 04:00:00 -1.9 28 Norte 43 Norte 0 -- -- 95
2020-01-21 03:00:00 -1.9 24 Norte 40 Norte -- -- -- 95
2020-01-21 02:00:00 -1.9 23 Norte 41 Norte 0 -- -- 94
2020-01-21 01:00:00 -0.6 18 Nordeste 40 Norte 0 -- -- 86
2020-01-21 00:00:00 -1.9 27 Norte 48 Norte 0 -- -- 93
2020-01-20 23:00:00 -0.4 24 Norte 45 Nordeste 0 -- -- 85
2020-01-20 22:00:00 -1.5 30 Norte 43 Nordeste 0 -- -- 93
2020-01-20 21:00:00 -0.7 19 Nordeste 39 Norte 0 -- -- 88
2020-01-20 20:00:00 -1.6 26 Norte 43 Nordeste 0 -- -- 91
2020-01-20 19:00:00 -2.1 29 Norte 48 Norte 0 -- -- 94
2020-01-20 18:00:00 -2.1 30 Norte 45 Norte 0 -- -- 93
2020-01-20 17:00:00 -1.6 23 Norte 35 Norte 0 -- -- 94
2020-01-20 16:00:00 -1.9 23 Norte 35 Norte 0 -- -- 93
2020-01-20 15:00:00 -2.1 23 Norte 36 Norte 0 -- -- 92
2020-01-20 14:00:00 -1.6 24 Norte 40 Norte 0.2 -- -- 90
2020-01-20 13:00:00 -2.6 32 Norte 44 Norte 0 -- -- 90
2020-01-20 12:00:00 -3.1 29 Norte 46 Norte 0 -- -- 93
2020-01-20 11:00:00 -3.1 30 Norte 42 Norte 0 -- -- 91
2020-01-20 10:00:00 -3.5 26 Norte 40 Norte 0 -- -- 87
2020-01-20 09:00:00 -3.3 27 Norte 45 Norte 0 -- -- 80
2020-01-20 08:00:00 -3.2 30 Norte 50 Norte 0 -- -- 78
2020-01-20 07:00:00 -3.3 34 Norte 48 Norte 0 -- -- 79
2020-01-20 06:00:00 -3.2 31 Norte 46 Norte 0 -- -- 80
2020-01-20 05:00:00 -3.1 25 Norte 39 Norte 0 -- -- 81
2020-01-20 04:00:00 -3.1 26 Norte 39 Norte 0 -- -- 81
2020-01-20 03:00:00 -3.1 23 Norte 35 Norte 0 -- -- 82
2020-01-20 02:00:00 -3.2 23 Norte 40 Norte 0 -- -- 83
2020-01-20 01:00:00 -3 22 Norte 38 Norte 0 -- -- 82
2020-01-20 00:00:00 -2.6 18 Norte 30 Norte 0 -- -- 81
2020-01-19 23:00:00 -2.4 21 Norte 39 Norte 0 -- -- 80
2020-01-19 22:00:00 -2 24 Norte 44 Norte 0 -- -- 79
2020-01-19 21:00:00 -1.4 27 Norte 45 Norte 0 -- -- 76
2020-01-19 20:00:00 -0.6 32 Norte 50 Norte 0 -- -- 72
2020-01-19 19:00:00 0.2 37 Norte 60 Norte 0 -- -- 71
2020-01-19 18:00:00 1 37 Norte 60 Norte 0 -- -- 73
2020-01-19 17:00:00 1.7 33 Norte 53 Norte 0 -- -- 78
2020-01-19 16:00:00 1.7 33 Norte 54 Norte 0 -- -- 82
2020-01-19 15:00:00 1.2 33 Norte 53 Norte 0 -- -- 89
2020-01-19 14:00:00 0.8 35 Norte 60 Norte 0 -- -- 96
2020-01-19 13:00:00 0.6 31 Norte 53 Norte 0.2 -- -- 98
2020-01-19 12:00:00 0.8 33 Norte 51 Norte 0.2 -- -- 96
2020-01-19 11:00:00 1.7 27 Norte 44 Norte 0.2 -- -- 97
2020-01-19 10:00:00 1.7 22 Norte 35 Norte 0 -- -- 98
2020-01-19 09:00:00 1.4 22 Norte 31 Norte 0.2 -- -- 99
2020-01-19 08:00:00 1.3 13 Norte 27 Norte 0 -- -- 98
2020-01-19 07:00:00 1.6 10 Nordeste 20 Norte 0.2 -- -- 97
2020-01-19 06:00:00 1.1 4 Norte 18 Nordeste 0 -- -- 96
2020-01-19 05:00:00 1.6 10 Nordeste 21 Norte 0 -- -- 93
2020-01-19 04:00:00 2.1 10 Norte 17 Norte 0 -- -- 93
2020-01-19 03:00:00 2.4 5 Nordeste 19 Este 0 -- -- 91
2020-01-19 02:00:00 3.1 5 Norte 21 Norte 0 -- -- 93
2020-01-19 01:00:00 3 7 Noroeste 22 Norte 0 -- -- 90
2020-01-19 00:00:00 4.4 18 Norte 45 Nordeste 0.6 -- -- 86
2020-01-18 23:00:00 5.9 7 Sur 12 Sur 0 -- -- 92
2020-01-18 22:00:00 6.2 0 Calma 11 Oeste 0 -- -- 87
2020-01-18 21:00:00 6.1 0 Calma 16 Sudeste 0 -- -- 85
2020-01-18 20:00:00 6.4 10 Sur 19 Sur 0 -- -- 85
2020-01-18 19:00:00 7.4 9 Sur 27 Sudoeste 0 -- -- 77
2020-01-18 18:00:00 8.1 13 Sudoeste 27 Sur 0 -- -- 71
2020-01-18 17:00:00 9.1 19 Sudoeste 40 Oeste 0 -- -- 66
2020-01-18 16:00:00 11.8 12 Oeste 27 Sudoeste 0 -- -- 56
2020-01-18 15:00:00 9.8 7 Sur 27 Noroeste 0 -- -- 61
2020-01-18 14:00:00 9.8 19 Noroeste 33 Noroeste 0 -- -- 61
2020-01-18 13:00:00 9.6 17 Sudoeste 29 Sudoeste 0 -- -- 62
2020-01-18 12:00:00 7.4 10 Sur 21 Sur 0 -- -- 69
2020-01-18 11:00:00 4.4 12 Sur 20 Sur 0 -- -- 77
2020-01-18 10:00:00 1.9 7 Sur 21 Sudoeste 0 -- -- 82
2020-01-18 09:00:00 1.5 9 Sudoeste 15 Sudoeste 0 -- -- 83
2020-01-18 08:00:00 0.4 9 Sur 17 Sudoeste 0 -- -- 87
2020-01-18 07:00:00 -0.7 0 Calma 9 Sudoeste 0 -- -- 89
2020-01-18 06:00:00 -0.4 3 Oeste 11 Sudoeste 0 -- -- 90
2020-01-18 05:00:00 -1.4 4 Sudoeste 8 Sudoeste 0 -- -- 91
2020-01-18 04:00:00 -1.1 5 Sudeste 16 Sudoeste 0 -- -- 89
2020-01-18 03:00:00 -1.3 8 Sudoeste 12 Sudoeste 0 -- -- 90
2020-01-18 02:00:00 -1 9 Sudoeste 13 Sudoeste 0 -- -- 90
2020-01-18 01:00:00 -1.6 0 Calma 6 Oeste 0 -- -- 91
2020-01-18 00:00:00 -2.3 0 Calma 8 Sudoeste 0 -- -- 91
2020-01-17 23:00:00 -2 0 Calma 8 Sudoeste 0 -- -- 89
2020-01-17 22:00:00 0.4 3 Noroeste 10 Norte 0 -- -- 82
2020-01-17 21:00:00 0.9 3 Sudeste 13 Norte 0 -- -- 82
2020-01-17 20:00:00 2.6 4 Nordeste 20 Noroeste 0 -- -- 74
2020-01-17 19:00:00 4.9 10 Noroeste 26 Norte 0 -- -- 64
2020-01-17 18:00:00 7.2 17 Norte 27 Norte 0 -- -- 57
2020-01-17 17:00:00 9.2 18 Norte 27 Norte 0 -- -- 56
2020-01-17 16:00:00 8.7 16 Norte 41 Noroeste 0 -- -- 63
2020-01-17 15:00:00 9 24 Norte 34 Noroeste 0 -- -- 59
2020-01-17 14:00:00 8.6 24 Noroeste 39 Noroeste 0 -- -- 61
2020-01-17 13:00:00 8.6 18 Norte 33 Noroeste 0 -- -- 62
2020-01-17 12:00:00 9.8 8 Noroeste 31 Noroeste 0 -- -- 57
2020-01-17 11:00:00 8.2 17 Noroeste 23 Noroeste 0 -- -- 60
2020-01-17 10:00:00 6.6 11 Oeste 26 Oeste 0 -- -- 67
2020-01-17 09:00:00 2.8 7 Sudeste 11 Sudeste 0 -- -- 78
2020-01-17 08:00:00 2.2 4 Este 10 Oeste 0 -- -- 83
2020-01-17 07:00:00 1.5 6 Noroeste 10 Noroeste 0 -- -- 80
2020-01-17 06:00:00 3.6 7 Noroeste 13 Noroeste 0 -- -- 73
2020-01-17 05:00:00 1.8 3 Oeste 9 Sudoeste 0 -- -- 81
2020-01-17 04:00:00 2.4 0 Calma 10 Sur 0 -- -- 82
2020-01-17 03:00:00 3 5 Sudoeste 9 Sudoeste 0 -- -- 79
2020-01-17 02:00:00 3.5 0 Calma 13 Sur 0 -- -- 80
2020-01-17 01:00:00 4.2 9 Sur 22 Sur 0 -- -- 79
2020-01-17 00:00:00 4 12 Sudoeste 17 Sudoeste 0 -- -- 81
2020-01-16 23:00:00 2.8 9 Sudoeste 15 Sudoeste 0 -- -- 85
2020-01-16 22:00:00 2.5 11 Sudoeste 15 Sudoeste 0 -- -- 84
2020-01-16 21:00:00 2.7 5 Sur 14 Sudoeste 0 -- -- 82
2020-01-16 20:00:00 6.8 8 Sudoeste 17 Sudoeste 0 -- -- 70
2020-01-16 19:00:00 8.1 8 Oeste 15 Sudoeste 0 -- -- 65
2020-01-16 18:00:00 10.1 5 Oeste 22 Sudoeste 0 -- -- 57
2020-01-16 17:00:00 11.8 9 Sudoeste 22 Oeste 0 -- -- 50
2020-01-16 16:00:00 13.8 12 Oeste 25 Oeste 0 -- -- 46
2020-01-16 15:00:00 11.6 7 Sur 17 Sur 0 -- -- 59
2020-01-16 14:00:00 11.3 9 Sur 20 Sur 0 -- -- 60
2020-01-16 13:00:00 11.1 12 Sur 19 Sur 0 -- -- 62
2020-01-16 12:00:00 8.7 11 Sur 16 Sur 0 -- -- 72
2020-01-16 11:00:00 5.3 12 Sur 17 Sur 0 -- -- 84
2020-01-16 10:00:00 1.6 6 Sur 10 Sur 0 -- -- 94
2020-01-16 09:00:00 -1.3 8 Sur 14 Sur 0 -- -- 98
2020-01-16 08:00:00 -1.2 6 Sur 9 Sur 0 -- -- 98
2020-01-16 07:00:00 -0.9 5 Sur 11 Sudoeste 0 -- -- 97
2020-01-16 06:00:00 -0.8 6 Sudoeste 11 Sur 0 -- -- 98
2020-01-16 05:00:00 -1.7 6 Sur 9 Sudeste 0 -- -- 97
2020-01-16 04:00:00 -0.7 0 Calma 12 Sudoeste 0 -- -- 94
2020-01-16 03:00:00 -0.5 5 Sur 13 Sudoeste 0 -- -- 92
2020-01-16 02:00:00 -0.9 5 Sur 11 Sudoeste 0 -- -- 96
2020-01-16 01:00:00 0.6 0 Calma 9 Sudoeste 0 -- -- 95
2020-01-16 00:00:00 1.4 5 Sudeste 10 Sudeste 0 -- -- 92
2020-01-15 23:00:00 2.8 5 Oeste 12 Sudeste 0 -- -- 87
2020-01-15 22:00:00 3.3 4 Sur 9 Sudoeste 0 -- -- 85
2020-01-15 21:00:00 4.9 5 Sudeste 9 Sudeste 0 -- -- 79
2020-01-15 20:00:00 5.3 2 Nordeste 21 Noroeste 0 -- -- 78
2020-01-15 19:00:00 8 16 Noroeste 22 Noroeste 0 -- -- 69
2020-01-15 18:00:00 7.6 8 Noroeste 23 Noroeste 0 -- -- 67
2020-01-15 17:00:00 11 8 Noroeste 32 Noroeste 0 -- -- 56
2020-01-15 16:00:00 11.9 17 Noroeste 33 Noroeste 0 -- -- 54
2020-01-15 15:00:00 11.8 18 Noroeste 32 Noroeste 0 -- -- 53
2020-01-15 14:00:00 11.7 12 Noroeste 20 Noroeste 0 -- -- 50
2020-01-15 13:00:00 8.8 6 Sur 16 Sudoeste 0 -- -- 57
2020-01-15 12:00:00 6.1 9 Sudoeste 15 Sur 0 -- -- 68
2020-01-15 11:00:00 3.2 8 Sur 13 Sur 0 -- -- 73
2020-01-15 10:00:00 -1.1 6 Sudeste 16 Sudoeste 0 -- -- 80
2020-01-15 09:00:00 -2.2 10 Sudoeste 14 Sudoeste 0 -- -- 85
2020-01-15 08:00:00 -2.9 0 Calma 15 Sur 0 -- -- 86
2020-01-15 07:00:00 -2.3 5 Sur 14 Sur 0 -- -- 85
2020-01-15 06:00:00 -2 8 Sur 12 Sur 0 -- -- 85
2020-01-15 05:00:00 -3.6 6 Sur 11 Sur 0 -- -- 89
2020-01-15 04:00:00 -3.7 7 Sudoeste 12 Sur 0 -- -- 89
2020-01-15 03:00:00 -5.9 0 Calma 4 Sudeste 0 -- -- 88
2020-01-15 02:00:00 -5.1 0 Calma -- -- 0 -- -- 88
2020-01-15 01:00:00 -5.4 3 Sudoeste 6 Oeste 0 -- -- 86
2020-01-15 00:00:00 -3.8 0 Calma 10 Oeste 0 -- -- 80
2020-01-14 23:00:00 -3.6 0 Calma 6 Oeste 0 -- -- 78
2020-01-14 22:00:00 -1.8 0 Calma 7 Oeste 0 -- -- 76
2020-01-14 21:00:00 -1.4 0 Calma 8 Noroeste 0 -- -- 77
2020-01-14 20:00:00 0.8 4 Noroeste 15 Norte 0 -- -- 66
2020-01-14 19:00:00 3.9 12 Noroeste 15 Norte 0 -- -- 52
2020-01-14 18:00:00 5.3 10 Norte 13 Norte 0 -- -- 45
2020-01-14 17:00:00 10.7 10 Norte 17 Norte 0 -- -- 31
2020-01-14 16:00:00 11.8 11 Norte 18 Nordeste 0 -- -- 27
2020-01-14 15:00:00 12.3 9 Norte 14 Norte 0 -- -- 23
2020-01-14 14:00:00 11.7 4 Norte 7 Noroeste 0 -- -- 26
2020-01-14 13:00:00 9.5 4 Sudoeste 11 Sudoeste 0 -- -- 29
2020-01-14 12:00:00 5.5 5 Sudoeste 10 Sur 0 -- -- 41
2020-01-14 11:00:00 1.5 5 Sur 10 Sur 0 -- -- 49
2020-01-14 10:00:00 -2.6 4 Sur 9 Sudoeste 0 -- -- 65
2020-01-14 09:00:00 -7.8 0 Calma -- -- 0 -- -- 81
2020-01-14 08:00:00 -7.6 2 Sur 6 Sur 0 -- -- 79
2020-01-14 07:00:00 -7 0 Calma 8 Sur 0 -- -- 77
2020-01-14 06:00:00 -8.1 0 Calma 6 Sur 0 -- -- 82
2020-01-14 05:00:00 -7.4 0 Calma 9 Sur 0 -- -- 83
2020-01-14 04:00:00 -6.2 0 Calma -- -- 0 -- -- 72
2020-01-14 03:00:00 -7.2 0 Calma -- -- 0 -- -- 81
2020-01-14 02:00:00 -6.6 0 Calma -- -- 0 -- -- 80
2020-01-14 01:00:00 -5.3 0 Calma 2 Este 0 -- -- 74
2020-01-14 00:00:00 -4.9 3 Nordeste 9 Norte 0 -- -- 71
2020-01-13 23:00:00 -4.7 0 Calma 9 Este 0 -- -- 72
2020-01-13 22:00:00 -2.9 0 Calma 4 Sudeste 0 -- -- 63
2020-01-13 21:00:00 -1.9 2 Sur 7 Oeste 0 -- -- 65
2020-01-13 20:00:00 2 4 Oeste 13 Oeste 0 -- -- 54
2020-01-13 19:00:00 4.4 11 Noroeste 16 Noroeste 0 -- -- 47
2020-01-13 18:00:00 5.1 6 Noroeste 12 Norte 0 -- -- 42
2020-01-13 17:00:00 9.4 7 Norte 9 Norte 0 -- -- 27
2020-01-13 16:00:00 11.2 6 Norte 9 Noroeste 0 -- -- 24
2020-01-13 15:00:00 11.8 2 Noroeste 13 Sur 0 -- -- 25
2020-01-13 14:00:00 9.3 9 Sur 15 Sudeste 0 -- -- 28
2020-01-13 13:00:00 7.9 10 Sur 14 Sur 0 -- -- 31
2020-01-13 12:00:00 4.7 9 Sur 13 Sudoeste 0 -- -- 43
2020-01-13 11:00:00 0.8 8 Sur 14 Sur 0 -- -- 58
2020-01-13 10:00:00 -2.4 9 Sur 15 Sudoeste 0 -- -- 62
2020-01-13 09:00:00 -5.6 7 Sur 11 Sur 0 -- -- 73
2020-01-13 08:00:00 -5.9 6 Sur 10 Sudoeste 0 -- -- 72
2020-01-13 07:00:00 -7.1 0 Calma 5 Sur 0 -- -- 77
2020-01-13 06:00:00 -6.4 4 Sur 6 Sur 0 -- -- 74
2020-01-13 05:00:00 -7 0 Calma 6 Sur 0 -- -- 77
2020-01-13 04:00:00 -6.1 4 Sur 6 Sudoeste 0 -- -- 71
2020-01-13 03:00:00 -6.6 4 Sur 6 Sur 0 -- -- 73
2020-01-13 02:00:00 -5.4 4 Sur 9 Sudoeste 0 -- -- 65
2020-01-13 01:00:00 -5.4 6 Sur 11 Sur 0 -- -- 68
2020-01-13 00:00:00 -4.8 0 Calma -- -- 0 -- -- 66
2020-01-12 23:00:00 -4.3 0 Calma 10 Oeste 0 -- -- 64
2020-01-12 22:00:00 -2.9 0 Calma 9 Oeste 0 -- -- 58
2020-01-12 21:00:00 -1.5 0 Calma 21 Noroeste 0 -- -- 55
2020-01-12 20:00:00 0.3 12 Noroeste 20 Oeste 0 -- -- 49
2020-01-12 19:00:00 1.4 12 Oeste 19 Noroeste 0 -- -- 44
2020-01-12 18:00:00 3.9 9 Noroeste 12 Noroeste 0 -- -- 38
2020-01-12 17:00:00 9.7 8 Nordeste 18 Nordeste 0 -- -- 22
2020-01-12 16:00:00 10 12 Norte 17 Norte 0 -- -- 24
2020-01-12 15:00:00 9.4 10 Norte 14 Norte 0 -- -- 33
2020-01-12 14:00:00 8.7 8 Norte 14 Nordeste 0 -- -- 35
2020-01-12 13:00:00 7.1 4 Norte 9 Norte 0 -- -- 40
2020-01-12 12:00:00 5.1 0 Calma 4 Sur 0 -- -- 54
2020-01-12 11:00:00 0.5 0 Calma 0 Calma 0 -- -- 67
2020-01-12 10:00:00 -4.5 0 Calma -- -- 0 -- -- 81
2020-01-12 09:00:00 -8.4 0 Calma -- -- 0 -- -- 93
2020-01-12 08:00:00 -8.6 0 Calma -- -- 0 -- -- 94
2020-01-12 07:00:00 -8.3 0 Calma -- -- 0 -- -- 90
2020-01-12 06:00:00 -7.7 0 Calma -- -- 0 -- -- 91
2020-01-12 05:00:00 -6.2 0 Calma -- -- 0 -- -- 88
2020-01-12 04:00:00 -7.6 0 Calma 6 Sur 0 -- -- 89
2020-01-12 03:00:00 -6.3 3 Sudoeste 7 Sudoeste 0 -- -- 90
2020-01-12 02:00:00 -6.1 0 Calma -- -- 0 -- -- 92
2020-01-12 01:00:00 -5.4 0 Calma -- -- 0 -- -- 92
2020-01-12 00:00:00 -5.5 0 Calma -- -- 0 -- -- 92
2020-01-11 23:00:00 -4.6 0 Calma -- -- 0 -- -- 88
2020-01-11 22:00:00 -2.9 0 Calma -- -- 0 -- -- 85
2020-01-11 21:00:00 -2.3 0 Calma 6 Noroeste 0 -- -- 82
2020-01-11 20:00:00 -0.7 4 Norte 15 Noroeste 0 -- -- 80
2020-01-11 19:00:00 2 9 Oeste 15 Oeste 0 -- -- 72
2020-01-11 18:00:00 3.5 4 Noroeste 6 Nordeste 0 -- -- 67
2020-01-11 17:00:00 8.9 4 Nordeste 12 Norte 0 -- -- 48
2020-01-11 16:00:00 9.4 6 Nordeste 10 Nordeste 0 -- -- 42
2020-01-11 15:00:00 8.9 8 Norte 14 Norte 0 -- -- 39
2020-01-11 14:00:00 8.3 6 Nordeste 12 Nordeste 0 -- -- 48
2020-01-11 13:00:00 6.6 6 Norte 11 Norte 0 -- -- 56
2020-01-11 12:00:00 4.5 3 Norte 9 Este 0 -- -- 70
2020-01-11 11:00:00 2.7 4 Nordeste 5 Nordeste 0 -- -- 79
2020-01-11 10:00:00 -1.4 0 Calma -- -- 0 -- -- 90
2020-01-11 09:00:00 -4.9 0 Calma 7 Oeste 0 -- -- 94
2020-01-11 08:00:00 -4.7 0 Calma 6 Noroeste 0 -- -- 97
2020-01-11 07:00:00 -3.6 3 Noroeste 5 Noroeste 0 -- -- 95
2020-01-11 06:00:00 -2.7 4 Noroeste 5 Noroeste 0 -- -- 96
2020-01-11 05:00:00 -2.4 0 Calma 9 Norte 0 -- -- 95
2020-01-11 04:00:00 -0.6 2 Norte 10 Nordeste 0 -- -- 90
2020-01-11 03:00:00 1.1 6 Norte 15 Nordeste 0 -- -- 86
2020-01-11 02:00:00 1.4 11 Norte 22 Norte 0 -- -- 86
2020-01-11 01:00:00 2.9 13 Norte 25 Norte 0 -- -- 81
2020-01-11 00:00:00 2.9 10 Nordeste 16 Nordeste 0 -- -- 81
2020-01-10 23:00:00 3.3 6 Norte 29 Nordeste 0 -- -- 79
2020-01-10 22:00:00 3.7 17 Norte 28 Norte 0 -- -- 77
2020-01-10 21:00:00 3.7 9 Norte 32 Norte 0 -- -- 77
2020-01-10 20:00:00 4.2 19 Nordeste 28 Nordeste 0 -- -- 76
2020-01-10 19:00:00 4.5 12 Norte 28 Nordeste 0 -- -- 75
2020-01-10 18:00:00 4.8 15 Nordeste 34 Norte 0 -- -- 72
2020-01-10 17:00:00 5.3 20 Nordeste 33 Norte 0 -- -- 69
2020-01-10 16:00:00 5.6 23 Nordeste 40 Nordeste 0 -- -- 68
2020-01-10 15:00:00 5.9 23 Nordeste 41 Norte 0 -- -- 65
2020-01-10 14:00:00 6.4 30 Norte 48 Norte 0 -- -- 63
2020-01-10 13:00:00 5.9 28 Norte 42 Norte 0 -- -- 65
2020-01-10 12:00:00 4.8 23 Norte 39 Norte 0 -- -- 71
2020-01-10 11:00:00 4.1 26 Norte 38 Norte 0 -- -- 76
2020-01-10 10:00:00 3.7 17 Norte 24 Norte 0 -- -- 85
2020-01-10 09:00:00 0.6 7 Norte 19 Norte 0 -- -- 94
2020-01-10 08:00:00 2 13 Norte 26 Norte 0 -- -- 92
2020-01-10 07:00:00 3 18 Norte 27 Norte 0 -- -- 88
2020-01-10 06:00:00 3.3 14 Norte 29 Nordeste 0 -- -- 92
2020-01-10 05:00:00 3.5 17 Norte 26 Norte 0 -- -- 94
2020-01-10 04:00:00 2.7 0 Calma -- -- 0 -- -- 90
2020-01-10 03:00:00 0.6 0 Calma 6 Oeste 0 -- -- 85
2020-01-10 02:00:00 0.4 3 Noroeste 6 Oeste 0 -- -- 91
2020-01-10 01:00:00 -0.4 0 Calma 9 Noroeste 0 -- -- 90
2020-01-10 00:00:00 2.4 2 Oeste 10 Sudoeste 0 -- -- 84
2020-01-09 23:00:00 1.6 3 Sur 8 Sur 0 -- -- 83
2020-01-09 22:00:00 4.6 5 Norte 17 Norte 0 -- -- 74
2020-01-09 21:00:00 2.9 10 Norte 17 Norte 0 -- -- 78
2020-01-09 20:00:00 4.2 5 Sur 8 Sur 0 -- -- 64
2020-01-09 19:00:00 5.3 0 Calma 11 Noroeste 0 -- -- 61
2020-01-09 18:00:00 8.4 10 Noroeste 20 Noroeste 0 -- -- 48
2020-01-09 17:00:00 12.6 7 Sudoeste 18 Sur 0 -- -- 35
2020-01-09 16:00:00 14.7 6 Sudoeste 13 Sur 0 -- -- 31
2020-01-09 15:00:00 14.4 3 Sudoeste 11 Sur 0 -- -- 35
2020-01-09 14:00:00 11.8 5 Sur 12 Sur 0 -- -- 50
2020-01-09 13:00:00 8.4 9 Sur 15 Sur 0 -- -- 64
2020-01-09 12:00:00 4 10 Sur 14 Sudoeste 0 -- -- 99
2020-01-09 11:00:00 -0.2 0 Calma -- -- 0 -- -- 100
2020-01-09 10:00:00 -1.4 0 Calma -- -- 0 -- -- 100
2020-01-09 09:00:00 -1.8 0 Calma -- -- 0 -- -- 100
2020-01-09 08:00:00 -1.8 0 Calma -- -- 0 -- -- 100
2020-01-09 07:00:00 -1.5 0 Calma -- -- 0 -- -- 100
2020-01-09 06:00:00 -0.8 0 Calma -- -- 0 -- -- 100
2020-01-09 05:00:00 -0.6 0 Calma 12 Sudoeste 0 -- -- 100
2020-01-09 04:00:00 -0.7 8 Sudoeste 13 Sudoeste 0 -- -- 100
2020-01-09 03:00:00 -0.3 9 Sudoeste 11 Sudoeste 0 -- -- 100
2020-01-09 02:00:00 -0.1 9 Sudoeste 14 Sudoeste 0 -- -- 99
2020-01-09 01:00:00 1.7 9 Sudoeste 13 Sudoeste 0 -- -- 99
2020-01-09 00:00:00 0.4 5 Sur 8 Sudoeste 0 -- -- 97
2020-01-08 23:00:00 2.6 6 Sudoeste 14 Sudoeste 0 -- -- 93
2020-01-08 22:00:00 2.8 9 Sudoeste 13 Sudoeste 0 -- -- 91
2020-01-08 21:00:00 3.8 10 Sudoeste 15 Sudoeste 0 -- -- 90
2020-01-08 20:00:00 4.6 9 Sudoeste 12 Sudoeste 0 -- -- 87
2020-01-08 19:00:00 5.8 9 Sudoeste 13 Sudoeste 0 -- -- 82
2020-01-08 18:00:00 7.6 5 Sudoeste 9 Sudoeste 0 -- -- 72
2020-01-08 17:00:00 12.7 4 Sudoeste 8 Sur 0 -- -- 53
2020-01-08 16:00:00 13.7 3 Sudeste 9 Oeste 0 -- -- 49
2020-01-08 15:00:00 13.9 0 Calma 11 Norte 0 -- -- 49
2020-01-08 14:00:00 12.3 4 Norte 7 Norte 0 -- -- 56
2020-01-08 13:00:00 12.1 2 Sudeste 5 Sudeste 0 -- -- 40
2020-01-08 12:00:00 9.8 2 Este 6 Sudeste 0 -- -- 43
2020-01-08 11:00:00 5.6 0 Calma 6 Oeste 0 -- -- 56
2020-01-08 10:00:00 0.7 0 Calma 4 Oeste 0 -- -- 75
2020-01-08 09:00:00 -2.2 0 Calma 8 Sudoeste 0 -- -- 85
2020-01-08 08:00:00 -3.3 0 Calma -- -- 0 -- -- 89
2020-01-08 07:00:00 -3.2 0 Calma -- -- 0 -- -- 87
2020-01-08 06:00:00 -3.3 0 Calma -- -- 0 -- -- 88
2020-01-08 05:00:00 -2.9 0 Calma -- -- 0 -- -- 87
2020-01-08 04:00:00 -3.6 0 Calma -- -- 0 -- -- 86
2020-01-08 03:00:00 -3.4 0 Calma -- -- 0 -- -- 85
2020-01-08 02:00:00 -3.3 0 Calma -- -- 0 -- -- 85
2020-01-08 01:00:00 -3.2 0 Calma -- -- 0 -- -- 86
2020-01-08 00:00:00 -2.6 0 Calma -- -- 0 -- -- 82
2020-01-07 23:00:00 -0.2 0 Calma -- -- 0 -- -- 72
2020-01-07 22:00:00 -0.4 0 Calma -- -- 0 -- -- 75
2020-01-07 21:00:00 2.9 0 Calma 12 Noroeste 0 -- -- 59
2020-01-07 20:00:00 3.5 6 Noroeste 10 Noroeste 0 -- -- 58
2020-01-07 19:00:00 5.3 8 Noroeste 10 Noroeste 0 -- -- 55
2020-01-07 18:00:00 6.9 7 Noroeste 17 Norte 0 -- -- 53
2020-01-07 17:00:00 10.3 8 Norte 13 Norte 0 -- -- 45
2020-01-07 16:00:00 13.1 8 Norte 16 Norte 0 -- -- 36
2020-01-07 15:00:00 12.7 8 Norte 14 Nordeste 0 -- -- 34
2020-01-07 14:00:00 12.7 2 Nordeste 8 Nordeste 0 -- -- 35
2020-01-07 13:00:00 10.1 3 Norte 5 Norte 0 -- -- 40
2020-01-07 12:00:00 7.9 0 Calma 3 Este 0 -- -- 51
2020-01-07 11:00:00 4.6 0 Calma -- -- 0 -- -- 62
2020-01-07 10:00:00 -1.2 0 Calma -- -- 0 -- -- 80
2020-01-07 09:00:00 -5.6 0 Calma -- -- 0 -- -- 91
2020-01-07 08:00:00 -6.2 0 Calma -- -- 0 -- -- 93
2020-01-07 07:00:00 -5.8 0 Calma -- -- 0 -- -- 94
2020-01-07 06:00:00 -5.3 0 Calma -- -- 0 -- -- 90
2020-01-07 05:00:00 -5.3 0 Calma -- -- 0 -- -- 91
2020-01-07 04:00:00 -4.5 0 Calma -- -- 0 -- -- 91
2020-01-07 03:00:00 -3.1 0 Calma -- -- 0 -- -- 87
2020-01-07 02:00:00 -3.7 0 Calma -- -- 0 -- -- 87
2020-01-07 01:00:00 -2.5 0 Calma -- -- 0 -- -- 84
2020-01-07 00:00:00 -1.1 0 Calma 8 Sudeste 0 -- -- 80
2020-01-06 23:00:00 -0.1 0 Calma -- -- 0 -- -- 77
2020-01-06 22:00:00 -0.8 0 Calma -- -- 0 -- -- 80
2020-01-06 21:00:00 1.2 0 Calma 12 Norte 0 -- -- 69
2020-01-06 20:00:00 4.6 8 Oeste 12 Oeste 0 -- -- 53
2020-01-06 19:00:00 4.7 0 Calma 16 Oeste 0 -- -- 55
2020-01-06 18:00:00 7.3 6 Noroeste 10 Noroeste 0 -- -- 48
2020-01-06 17:00:00 12.1 6 Noroeste 11 Norte 0 -- -- 41
2020-01-06 16:00:00 14.1 6 Norte 10 Nordeste 0 -- -- 32
2020-01-06 15:00:00 13.6 9 Norte 13 Nordeste 0 -- -- 37
2020-01-06 14:00:00 13.2 6 Norte 8 Nordeste 0 -- -- 32
2020-01-06 13:00:00 12.5 2 Sur 13 Sudoeste 0 -- -- 37
2020-01-06 12:00:00 8.4 8 Sudoeste 14 Sudoeste 0 -- -- 51
2020-01-06 11:00:00 4.1 7 Sur 12 Sur 0 -- -- 69
2020-01-06 10:00:00 0.8 5 Sur 13 Sur 0 -- -- 71